Airfield :
LOGIN :

Register | Disclaimer

   EN    FR    IT 

 










Legend :    VFR   Marginal VFR   IFR   Intensive IFR   Very Intensive IFR
Visi :
Ceiling :
>= 8 km
>= 3000ft
5 to 8 km
1000 to 3000 ft
1500m to 5 km
500 to 1000 ft
800 to 1500m
200 to 500 ft
< 800m
< 200 ft
Symbols :   Thunderstorms  Fog  Heavy snow  Heavy precipitations  Wind > 20 kt
SIGMETs :     Misc.  Thunderstorms  Icing  Turbulence  Mountain Waves  Volcanic Ashes






- Airport Elevation : -6 ft
- IATA code : ALY


HEAX - Alexandria Int.

CURRENT METAR :
  • 302000Z 09007KT CAVOK 21/13 Q1006 NOSIG

EXPIRED METARs :
  • 301900Z 08008KT CAVOK 22/13 Q1006 NOSIG
  • 301800Z 07006KT 6000 NSC 23/13 Q1006 NOSIG

TAF TAF HEAX
Valid from the 30 at 18:00 until the 01 at 00:00 UTC


301700Z 3018/3124 10010G20KT 6000 NSC
TEMPO 3018/3022 3000 SA
TEMPO 3018/3020 1200
BECMG 3020/3022 22012G24KT



MET'MAP, your aeronautical weather chart ! - Copyright ORBIFLY December 2007 - Disclaimer

ORBIFLY MET'MAP TEAM :

Programming & Development : Alexandra Zaïnal
Concept & original design : Baudouin d'Aumeries
Assistance for programming : Marc-Olivier Méhu
Technical & hardware support : Manuel Goepfert

Contact : metmap@orbifly.com




SOURCES & CREDITS :

   NOAA